createdAt,value
2023-05-04T00:02:39.107Z,74.10
2023-05-04T00:07:41.726Z,74.50
2023-05-04T00:12:43.935Z,74.50
2023-05-04T00:17:46.291Z,73.80
2023-05-04T00:22:48.488Z,74.40
2023-05-04T00:27:50.802Z,74.40
2023-05-04T00:32:53.063Z,74.60
2023-05-04T00:37:55.911Z,74.60
2023-05-04T00:42:58.314Z,74.90
2023-05-04T00:48:00.922Z,74.30
2023-05-04T00:53:09.464Z,74.30
2023-05-04T00:58:12.072Z,74.30
2023-05-04T01:03:14.401Z,74.10
2023-05-04T01:08:21.769Z,74.00
2023-05-04T01:13:25.695Z,73.80
2023-05-04T01:18:27.924Z,73.80
2023-05-04T01:23:30.223Z,73.50
2023-05-04T01:28:44.360Z,74.00
2023-05-04T01:33:47.332Z,74.10
2023-05-04T01:38:53.592Z,73.00
2023-05-04T01:43:57.045Z,74.00
2023-05-04T01:49:01.710Z,74.10
2023-05-04T01:54:04.020Z,74.60
2023-05-04T01:59:06.705Z,75.20
2023-05-04T02:04:09.095Z,75.00
2023-05-04T02:09:14.457Z,74.70
2023-05-04T02:14:16.765Z,74.40
2023-05-04T02:19:18.960Z,73.80
2023-05-04T02:24:21.676Z,74.70
2023-05-04T02:29:24.086Z,74.50
2023-05-04T02:34:26.431Z,73.90
2023-05-04T02:39:30.281Z,74.80
2023-05-04T02:44:33.513Z,75.00
2023-05-04T02:49:35.860Z,74.50
2023-05-04T02:54:38.631Z,74.90
2023-05-04T02:59:41.003Z,74.70
2023-05-04T03:04:43.474Z,75.40
2023-05-04T03:09:47.663Z,75.50
2023-05-04T03:14:50.312Z,75.00
2023-05-04T03:19:52.661Z,74.90
2023-05-04T03:24:55.374Z,75.10
2023-05-04T03:29:57.699Z,74.80
2023-05-04T03:35:02.582Z,74.60
2023-05-04T03:40:07.473Z,74.60
2023-05-04T03:45:11.666Z,74.30
2023-05-04T03:50:14.395Z,74.20
2023-05-04T03:55:18.279Z,74.10
2023-05-04T04:00:24.857Z,74.30
2023-05-04T04:05:34.712Z,74.20
2023-05-04T04:10:38.076Z,75.20
2023-05-04T04:15:41.608Z,75.00
2023-05-04T04:20:45.761Z,74.80
2023-05-04T04:25:48.033Z,74.50
2023-05-04T04:30:50.222Z,74.40
2023-05-04T04:35:53.236Z,74.40
2023-05-04T04:40:55.812Z,74.50
2023-05-04T04:45:58.694Z,74.60
2023-05-04T04:51:00.913Z,72.30
2023-05-04T04:56:03.749Z,73.30
2023-05-04T05:01:08.313Z,73.90
2023-05-04T05:06:11.466Z,75.40
2023-05-04T05:11:13.685Z,75.70
2023-05-04T05:16:16.223Z,75.80
2023-05-04T05:21:18.588Z,75.70
2023-05-04T05:26:20.863Z,75.60
2023-05-04T05:31:23.270Z,73.70
2023-05-04T05:36:25.714Z,75.30
2023-05-04T05:41:28.158Z,73.80
2023-05-04T05:46:30.620Z,74.00
2023-05-04T05:51:33.043Z,75.90
2023-05-04T05:56:35.318Z,78.10
2023-05-04T06:01:37.601Z,78.10
2023-05-04T06:06:39.952Z,78.30
2023-05-04T06:11:42.293Z,78.70
2023-05-04T06:16:44.884Z,78.40
2023-05-04T06:21:49.551Z,78.20
2023-05-04T06:26:51.943Z,78.90
2023-05-04T06:31:54.335Z,79.80
2023-05-04T06:36:56.826Z,80.10
2023-05-04T06:42:00.046Z,80.70
2023-05-04T06:47:08.087Z,80.80
2023-05-04T06:52:11.635Z,82.10
2023-05-04T06:57:13.985Z,82.60
2023-05-04T07:02:17.184Z,83.50
2023-05-04T07:07:19.900Z,83.50
2023-05-04T07:12:22.167Z,83.20
2023-05-04T07:17:25.806Z,83.70
2023-05-04T07:22:28.210Z,84.00
2023-05-04T07:27:30.642Z,83.50
2023-05-04T07:32:33.201Z,83.50
2023-05-04T07:37:35.659Z,83.00
2023-05-04T07:42:38.179Z,84.20
2023-05-04T07:47:40.922Z,84.90
2023-05-04T07:52:45.586Z,85.30
2023-05-04T07:57:47.877Z,84.20
2023-05-04T08:02:50.362Z,84.80
2023-05-04T08:07:52.710Z,82.80
2023-05-04T08:12:55.053Z,83.70
2023-05-04T08:17:57.624Z,83.10
2023-05-04T08:23:02.734Z,82.40
2023-05-04T08:28:05.150Z,82.50
2023-05-04T08:33:08.454Z,81.20
2023-05-04T08:38:10.780Z,82.00
2023-05-04T08:43:13.852Z,82.00
2023-05-04T08:48:16.267Z,82.10
2023-05-04T08:53:21.655Z,81.10
2023-05-04T08:58:26.282Z,82.00
2023-05-04T09:03:29.431Z,77.10
2023-05-04T09:08:32.042Z,76.70
2023-05-04T09:13:34.349Z,76.30
2023-05-04T09:18:38.281Z,77.30
2023-05-04T09:23:56.165Z,76.70
2023-05-04T09:29:11.232Z,76.70
2023-05-04T09:34:15.109Z,76.30
2023-05-04T09:39:17.350Z,75.00
2023-05-04T09:44:23.499Z,75.40
2023-05-04T09:49:32.793Z,75.40
2023-05-04T09:54:36.380Z,75.20
2023-05-04T09:59:39.790Z,73.70
2023-05-04T10:04:43.608Z,75.20
2023-05-04T10:09:48.090Z,75.70
2023-05-04T10:14:50.466Z,76.20
2023-05-04T10:30:32.771Z,76.20
2023-05-04T10:35:35.117Z,78.00
2023-05-04T10:40:38.761Z,78.30
2023-05-04T10:45:42.192Z,78.50
2023-05-04T10:50:49.627Z,77.80
2023-05-04T10:55:51.853Z,77.90
2023-05-04T11:00:54.164Z,78.70
2023-05-04T11:05:56.867Z,78.60
2023-05-04T11:11:02.554Z,79.60
2023-05-04T11:16:05.040Z,78.80
2023-05-04T11:21:09.498Z,78.60
2023-05-04T11:26:12.508Z,78.20
2023-05-04T11:31:15.694Z,79.60
2023-05-04T11:36:18.452Z,79.10
2023-05-04T11:41:26.367Z,78.20
2023-05-04T11:46:29.674Z,78.30
2023-05-04T11:51:34.384Z,79.30
2023-05-04T11:56:44.021Z,79.20
2023-05-04T12:01:47.878Z,79.50
2023-05-04T12:06:50.451Z,79.70
2023-05-04T12:11:55.915Z,79.90
2023-05-04T12:17:01.832Z,80.20
2023-05-04T12:22:06.125Z,80.90
2023-05-04T12:27:15.871Z,80.60
2023-05-04T12:32:18.733Z,80.40
2023-05-04T12:37:22.156Z,79.80
2023-05-04T12:42:26.095Z,79.80
2023-05-04T12:47:28.890Z,80.40
2023-05-04T12:52:31.351Z,80.50
2023-05-04T12:57:33.565Z,81.80
2023-05-04T13:02:35.922Z,81.30
2023-05-04T13:07:38.307Z,81.50
2023-05-04T13:12:40.710Z,81.50
2023-05-04T13:17:44.268Z,81.30
2023-05-04T13:22:48.308Z,81.50
2023-05-04T13:27:50.523Z,81.70
2023-05-04T13:32:53.091Z,81.60
2023-05-04T13:37:55.428Z,82.40
2023-05-04T13:42:57.788Z,82.60
2023-05-04T13:48:00.322Z,82.70
2023-05-04T13:53:03.015Z,83.10
2023-05-04T13:58:05.278Z,83.30
2023-05-04T14:03:07.562Z,83.20
2023-05-04T14:08:09.935Z,83.60
2023-05-04T14:13:12.448Z,83.30
2023-05-04T14:18:14.828Z,83.00
2023-05-04T14:23:17.147Z,83.20
2023-05-04T14:28:19.396Z,83.00
2023-05-04T14:33:21.667Z,82.70
2023-05-04T14:38:23.916Z,82.30
2023-05-04T14:43:26.310Z,82.30
2023-05-04T14:48:29.286Z,82.00
2023-05-04T14:53:36.901Z,81.80
2023-05-04T14:58:40.254Z,81.60
2023-05-04T15:03:42.705Z,81.60
2023-05-04T15:08:45.092Z,81.10
2023-05-04T15:13:47.384Z,81.60
2023-05-04T15:18:49.603Z,81.90
2023-05-04T15:23:51.855Z,81.40
2023-05-04T15:28:54.393Z,81.40
2023-05-04T15:33:56.963Z,81.20
2023-05-04T15:38:59.243Z,81.20
2023-05-04T15:44:02.507Z,81.80
2023-05-04T15:49:05.523Z,81.30
2023-05-04T15:54:07.942Z,81.70
2023-05-04T15:59:10.237Z,81.30
2023-05-04T16:04:12.557Z,81.80
2023-05-04T16:09:17.286Z,81.60
2023-05-04T16:14:19.534Z,82.10
2023-05-04T16:19:21.885Z,81.10
2023-05-04T16:24:24.384Z,80.50
2023-05-04T16:29:26.642Z,81.20
2023-05-04T16:34:29.197Z,81.60
2023-05-04T16:39:31.838Z,82.00
2023-05-04T16:44:34.166Z,81.90
2023-05-04T16:49:38.300Z,82.50
2023-05-04T16:54:41.458Z,82.10
2023-05-04T16:59:43.724Z,80.70
2023-05-04T17:04:46.307Z,81.10
2023-05-04T17:09:48.501Z,81.00
2023-05-04T17:14:50.892Z,81.20
2023-05-04T17:19:53.247Z,80.80
2023-05-04T17:24:55.468Z,80.20
2023-05-04T17:29:57.759Z,81.50
2023-05-04T17:35:08.436Z,81.50
2023-05-04T17:40:18.590Z,82.10
2023-05-04T17:45:22.032Z,82.20
2023-05-04T17:50:25.535Z,82.40
2023-05-04T17:55:28.715Z,81.40
2023-05-04T18:00:30.941Z,80.90
2023-05-04T18:05:33.210Z,81.80
2023-05-04T18:10:37.336Z,81.50
2023-05-04T18:15:39.567Z,81.50
2023-05-04T18:20:41.766Z,80.80
2023-05-04T18:25:44.038Z,80.10
2023-05-04T18:30:46.289Z,80.00
2023-05-04T18:35:48.547Z,79.90
2023-05-04T18:40:53.668Z,79.90
2023-05-04T18:45:56.019Z,79.40
2023-05-04T18:50:58.642Z,79.60
2023-05-04T19:01:13.415Z,79.40
2023-05-04T19:06:15.835Z,77.80
2023-05-04T19:11:18.040Z,79.10
2023-05-04T19:16:20.441Z,78.80
2023-05-04T19:21:22.791Z,78.90
2023-05-04T19:26:25.018Z,78.60
2023-05-04T19:31:27.365Z,78.50
2023-05-04T19:36:29.787Z,78.20
2023-05-04T19:41:32.528Z,78.20
2023-05-04T19:46:35.110Z,78.10
2023-05-04T19:51:37.603Z,77.90
2023-05-04T19:56:39.954Z,77.70
2023-05-04T20:01:42.223Z,77.40
2023-05-04T20:06:44.422Z,77.30
2023-05-04T20:11:47.170Z,77.80
2023-05-04T20:16:49.564Z,77.30
2023-05-04T20:21:51.906Z,76.90
2023-05-04T20:26:54.135Z,77.30
2023-05-04T20:31:56.658Z,77.40
2023-05-04T20:36:58.941Z,77.40
2023-05-04T20:42:01.529Z,77.60
2023-05-04T20:47:04.772Z,77.30
2023-05-04T20:52:08.410Z,77.10
2023-05-04T20:57:10.945Z,76.70
2023-05-04T21:02:13.229Z,77.20
2023-05-04T21:07:16.004Z,76.40
2023-05-04T21:12:18.497Z,76.10
2023-05-04T21:17:20.799Z,75.90
2023-05-04T21:22:23.088Z,75.70
2023-05-04T21:27:25.260Z,75.80
2023-05-04T21:32:27.488Z,75.60
2023-05-04T21:37:29.904Z,75.70
2023-05-04T21:42:32.198Z,75.70
2023-05-04T21:47:34.598Z,75.70
2023-05-04T21:52:37.206Z,75.70
2023-05-04T21:57:39.723Z,75.50
2023-05-04T22:02:41.964Z,75.50
2023-05-04T22:07:44.311Z,75.40
2023-05-04T22:12:46.623Z,75.30
2023-05-04T22:17:48.920Z,75.20
2023-05-04T22:22:51.220Z,75.10
2023-05-04T22:27:53.437Z,75.10
2023-05-04T22:32:56.192Z,75.10
2023-05-04T22:37:58.590Z,75.10
2023-05-04T22:43:00.992Z,75.10
2023-05-04T22:48:03.373Z,74.90
2023-05-04T22:53:06.218Z,75.10
2023-05-04T22:58:08.791Z,75.30
2023-05-04T23:03:11.081Z,75.40
2023-05-04T23:08:13.470Z,74.90
2023-05-04T23:13:15.714Z,74.80
2023-05-04T23:18:17.993Z,75.80
2023-05-04T23:23:20.244Z,76.20
2023-05-04T23:28:22.473Z,76.10
2023-05-04T23:33:24.756Z,75.90
2023-05-04T23:38:27.105Z,75.90
2023-05-04T23:43:29.338Z,75.50
2023-05-04T23:48:32.375Z,75.60
2023-05-04T23:53:38.304Z,75.30
2023-05-04T23:58:41.978Z,75.30
